sensor_id;sensor_type;location;lat;lon;timestamp;temperature;humidity
13808;DHT22;40769;51.512;5.494;2023-11-19T00:00:16;16.30;99.90
13808;DHT22;40769;51.512;5.494;2023-11-19T00:02:42;16.30;99.90
13808;DHT22;40769;51.512;5.494;2023-11-19T00:05:08;16.30;99.90
13808;DHT22;40769;51.512;5.494;2023-11-19T00:07:35;16.40;99.90
13808;DHT22;40769;51.512;5.494;2023-11-19T00:10:02;16.40;99.90
13808;DHT22;40769;51.512;5.494;2023-11-19T00:12:32;16.50;99.90
13808;DHT22;40769;51.512;5.494;2023-11-19T00:15:01;16.50;99.90
13808;DHT22;40769;51.512;5.494;2023-11-19T00:17:26;16.50;99.90
13808;DHT22;40769;51.512;5.494;2023-11-19T00:19:52;16.50;99.90
13808;DHT22;40769;51.512;5.494;2023-11-19T00:22:18;16.50;99.90
13808;DHT22;40769;51.512;5.494;2023-11-19T00:24:43;16.50;99.90
13808;DHT22;40769;51.512;5.494;2023-11-19T00:27:10;16.60;99.90
13808;DHT22;40769;51.512;5.494;2023-11-19T00:29:35;16.60;99.90
13808;DHT22;40769;51.512;5.494;2023-11-19T00:32:01;16.90;99.90
13808;DHT22;40769;51.512;5.494;2023-11-19T00:34:27;16.60;99.90
13808;DHT22;40769;51.512;5.494;2023-11-19T00:36:53;16.60;99.90
13808;DHT22;40769;51.512;5.494;2023-11-19T00:39:20;16.60;99.90
13808;DHT22;40769;51.512;5.494;2023-11-19T00:41:46;16.70;99.90
13808;DHT22;40769;51.512;5.494;2023-11-19T00:44:12;16.70;99.90
13808;DHT22;40769;51.512;5.494;2023-11-19T00:46:37;16.70;99.90
13808;DHT22;40769;51.512;5.494;2023-11-19T00:49:03;16.70;99.90
13808;DHT22;40769;51.512;5.494;2023-11-19T00:51:29;16.70;99.90
13808;DHT22;40769;51.512;5.494;2023-11-19T00:53:57;16.80;99.90
13808;DHT22;40769;51.512;5.494;2023-11-19T00:56:22;16.80;99.90
13808;DHT22;40769;51.512;5.494;2023-11-19T00:58:48;16.80;99.90
13808;DHT22;40769;51.512;5.494;2023-11-19T01:01:14;16.80;99.90
13808;DHT22;40769;51.512;5.494;2023-11-19T01:03:39;16.70;99.90
13808;DHT22;40769;51.512;5.494;2023-11-19T01:06:05;16.60;99.90
13808;DHT22;40769;51.512;5.494;2023-11-19T01:08:31;16.60;99.90
13808;DHT22;40769;51.512;5.494;2023-11-19T01:10:57;16.60;99.90
13808;DHT22;40769;51.512;5.494;2023-11-19T01:13:25;16.60;99.90
13808;DHT22;40769;51.512;5.494;2023-11-19T01:15:51;16.60;99.90
13808;DHT22;40769;51.512;5.494;2023-11-19T01:18:16;16.60;99.90
13808;DHT22;40769;51.512;5.494;2023-11-19T01:20:42;16.60;99.90
13808;DHT22;40769;51.512;5.494;2023-11-19T01:23:08;16.60;99.90
13808;DHT22;40769;51.512;5.494;2023-11-19T01:25:34;16.60;99.90
13808;DHT22;40769;51.512;5.494;2023-11-19T01:28:01;16.60;99.90
13808;DHT22;40769;51.512;5.494;2023-11-19T01:30:28;16.60;99.90
13808;DHT22;40769;51.512;5.494;2023-11-19T01:32:53;16.60;99.90
13808;DHT22;40769;51.512;5.494;2023-11-19T01:35:19;16.60;99.90
13808;DHT22;40769;51.512;5.494;2023-11-19T01:37:44;16.50;99.90
13808;DHT22;40769;51.512;5.494;2023-11-19T01:40:11;16.50;99.90
13808;DHT22;40769;51.512;5.494;2023-11-19T01:42:37;16.60;99.90
13808;DHT22;40769;51.512;5.494;2023-11-19T01:45:04;16.50;99.90
13808;DHT22;40769;51.512;5.494;2023-11-19T01:47:33;16.50;99.90
13808;DHT22;40769;51.512;5.494;2023-11-19T01:50:00;16.50;99.90
13808;DHT22;40769;51.512;5.494;2023-11-19T01:52:27;16.50;99.90
13808;DHT22;40769;51.512;5.494;2023-11-19T01:54:53;16.50;99.90
13808;DHT22;40769;51.512;5.494;2023-11-19T01:57:21;16.50;99.90
13808;DHT22;40769;51.512;5.494;2023-11-19T01:59:49;16.50;99.90
13808;DHT22;40769;51.512;5.494;2023-11-19T02:02:16;16.50;99.90
13808;DHT22;40769;51.512;5.494;2023-11-19T02:04:53;16.50;99.90
13808;DHT22;40769;51.512;5.494;2023-11-19T02:07:18;16.50;99.90
13808;DHT22;40769;51.512;5.494;2023-11-19T02:09:44;16.50;99.90
13808;DHT22;40769;51.512;5.494;2023-11-19T02:12:10;16.50;99.90
13808;DHT22;40769;51.512;5.494;2023-11-19T02:14:37;16.50;99.90
13808;DHT22;40769;51.512;5.494;2023-11-19T02:17:04;16.60;99.90
13808;DHT22;40769;51.512;5.494;2023-11-19T02:19:29;16.60;99.90
13808;DHT22;40769;51.512;5.494;2023-11-19T02:21:55;16.60;99.90
13808;DHT22;40769;51.512;5.494;2023-11-19T02:24:22;16.60;99.90
13808;DHT22;40769;51.512;5.494;2023-11-19T02:26:54;16.60;99.90
13808;DHT22;40769;51.512;5.494;2023-11-19T02:29:23;16.50;99.90
13808;DHT22;40769;51.512;5.494;2023-11-19T02:31:49;16.40;99.90
13808;DHT22;40769;51.512;5.494;2023-11-19T02:34:14;16.50;99.90
13808;DHT22;40769;51.512;5.494;2023-11-19T02:36:41;16.30;99.90
13808;DHT22;40769;51.512;5.494;2023-11-19T02:39:07;16.30;99.90
13808;DHT22;40769;51.512;5.494;2023-11-19T02:41:36;16.30;99.90
13808;DHT22;40769;51.512;5.494;2023-11-19T02:44:02;17.30;99.90
13808;DHT22;40769;51.512;5.494;2023-11-19T02:46:28;16.20;99.90
13808;DHT22;40769;51.512;5.494;2023-11-19T02:48:54;16.10;99.90
13808;DHT22;40769;51.512;5.494;2023-11-19T02:51:19;16.00;99.90
13808;DHT22;40769;51.512;5.494;2023-11-19T02:53:45;16.00;99.90
13808;DHT22;40769;51.512;5.494;2023-11-19T02:56:13;15.90;99.90
13808;DHT22;40769;51.512;5.494;2023-11-19T02:58:50;15.70;99.90
13808;DHT22;40769;51.512;5.494;2023-11-19T03:01:26;15.70;99.90
13808;DHT22;40769;51.512;5.494;2023-11-19T03:03:56;15.60;99.90
13808;DHT22;40769;51.512;5.494;2023-11-19T03:06:23;15.40;99.90
13808;DHT22;40769;51.512;5.494;2023-11-19T03:08:49;15.40;99.90
13808;DHT22;40769;51.512;5.494;2023-11-19T03:11:15;15.40;99.90
13808;DHT22;40769;51.512;5.494;2023-11-19T03:13:40;15.30;99.90
13808;DHT22;40769;51.512;5.494;2023-11-19T03:16:07;15.20;99.90
13808;DHT22;40769;51.512;5.494;2023-11-19T03:18:32;15.30;99.90
13808;DHT22;40769;51.512;5.494;2023-11-19T03:20:58;15.30;99.90
13808;DHT22;40769;51.512;5.494;2023-11-19T03:23:24;15.30;99.90
13808;DHT22;40769;51.512;5.494;2023-11-19T03:25:50;15.20;99.90
13808;DHT22;40769;51.512;5.494;2023-11-19T03:28:16;15.20;99.90
13808;DHT22;40769;51.512;5.494;2023-11-19T03:30:41;15.40;99.90
13808;DHT22;40769;51.512;5.494;2023-11-19T03:33:07;15.30;99.90
13808;DHT22;40769;51.512;5.494;2023-11-19T03:35:32;15.30;99.90
13808;DHT22;40769;51.512;5.494;2023-11-19T03:37:58;15.60;99.90
13808;DHT22;40769;51.512;5.494;2023-11-19T03:40:24;15.50;99.90
13808;DHT22;40769;51.512;5.494;2023-11-19T03:42:50;15.40;99.90
13808;DHT22;40769;51.512;5.494;2023-11-19T03:45:16;15.50;99.90
13808;DHT22;40769;51.512;5.494;2023-11-19T03:47:42;15.50;99.90
13808;DHT22;40769;51.512;5.494;2023-11-19T03:50:08;15.50;99.90
13808;DHT22;40769;51.512;5.494;2023-11-19T03:52:34;15.50;99.90
13808;DHT22;40769;51.512;5.494;2023-11-19T03:55:00;15.50;99.90
13808;DHT22;40769;51.512;5.494;2023-11-19T03:57:27;15.50;99.90
13808;DHT22;40769;51.512;5.494;2023-11-19T03:59:53;15.50;99.90
13808;DHT22;40769;51.512;5.494;2023-11-19T04:02:21;15.60;99.90
13808;DHT22;40769;51.512;5.494;2023-11-19T04:04:46;15.50;99.90
13808;DHT22;40769;51.512;5.494;2023-11-19T04:07:12;15.50;99.90
13808;DHT22;40769;51.512;5.494;2023-11-19T04:09:37;15.40;99.90
13808;DHT22;40769;51.512;5.494;2023-11-19T04:12:03;15.50;99.90
13808;DHT22;40769;51.512;5.494;2023-11-19T04:14:29;15.30;99.90
13808;DHT22;40769;51.512;5.494;2023-11-19T04:16:55;16.30;99.90
13808;DHT22;40769;51.512;5.494;2023-11-19T04:19:21;15.20;99.90
13808;DHT22;40769;51.512;5.494;2023-11-19T04:21:47;15.20;99.90
13808;DHT22;40769;51.512;5.494;2023-11-19T04:24:13;15.10;99.90
13808;DHT22;40769;51.512;5.494;2023-11-19T04:26:43;15.10;99.90
13808;DHT22;40769;51.512;5.494;2023-11-19T04:29:12;15.20;99.90
13808;DHT22;40769;51.512;5.494;2023-11-19T04:31:38;13.80;99.90
13808;DHT22;40769;51.512;5.494;2023-11-19T04:34:05;15.30;99.90
13808;DHT22;40769;51.512;5.494;2023-11-19T04:36:32;15.20;99.90
13808;DHT22;40769;51.512;5.494;2023-11-19T04:38:58;15.30;99.90
13808;DHT22;40769;51.512;5.494;2023-11-19T04:41:25;15.20;99.90
13808;DHT22;40769;51.512;5.494;2023-11-19T04:43:50;15.20;99.90
13808;DHT22;40769;51.512;5.494;2023-11-19T04:46:16;15.20;99.90
13808;DHT22;40769;51.512;5.494;2023-11-19T04:48:42;15.10;99.90
13808;DHT22;40769;51.512;5.494;2023-11-19T04:51:07;15.00;99.90
13808;DHT22;40769;51.512;5.494;2023-11-19T04:53:35;15.00;99.90
13808;DHT22;40769;51.512;5.494;2023-11-19T04:56:00;15.00;99.90
13808;DHT22;40769;51.512;5.494;2023-11-19T04:58:28;15.10;99.90
13808;DHT22;40769;51.512;5.494;2023-11-19T05:00:54;15.10;99.90
13808;DHT22;40769;51.512;5.494;2023-11-19T05:03:20;15.10;99.90
13808;DHT22;40769;51.512;5.494;2023-11-19T05:05:48;15.10;99.90
13808;DHT22;40769;51.512;5.494;2023-11-19T05:08:14;15.10;99.90
13808;DHT22;40769;51.512;5.494;2023-11-19T05:10:39;15.10;99.90
13808;DHT22;40769;51.512;5.494;2023-11-19T05:13:05;15.10;99.90
13808;DHT22;40769;51.512;5.494;2023-11-19T05:15:31;15.10;99.90
13808;DHT22;40769;51.512;5.494;2023-11-19T05:17:57;15.10;99.90
13808;DHT22;40769;51.512;5.494;2023-11-19T05:20:23;14.90;99.90
13808;DHT22;40769;51.512;5.494;2023-11-19T05:22:49;14.90;99.90
13808;DHT22;40769;51.512;5.494;2023-11-19T05:25:18;14.90;99.90
13808;DHT22;40769;51.512;5.494;2023-11-19T05:27:45;14.90;99.90
13808;DHT22;40769;51.512;5.494;2023-11-19T05:30:11;15.10;99.90
13808;DHT22;40769;51.512;5.494;2023-11-19T05:32:37;14.90;99.90
13808;DHT22;40769;51.512;5.494;2023-11-19T05:35:03;14.90;99.90
13808;DHT22;40769;51.512;5.494;2023-11-19T05:37:28;14.80;99.90
13808;DHT22;40769;51.512;5.494;2023-11-19T05:39:54;14.80;99.90
13808;DHT22;40769;51.512;5.494;2023-11-19T05:42:20;14.80;99.90
13808;DHT22;40769;51.512;5.494;2023-11-19T05:44:45;14.90;99.90
13808;DHT22;40769;51.512;5.494;2023-11-19T05:47:11;14.90;99.90
13808;DHT22;40769;51.512;5.494;2023-11-19T05:49:37;14.90;99.90
13808;DHT22;40769;51.512;5.494;2023-11-19T05:52:03;14.90;99.90
13808;DHT22;40769;51.512;5.494;2023-11-19T05:54:29;14.90;99.90
13808;DHT22;40769;51.512;5.494;2023-11-19T05:56:54;15.30;99.90
13808;DHT22;40769;51.512;5.494;2023-11-19T05:59:20;14.80;99.90
13808;DHT22;40769;51.512;5.494;2023-11-19T06:01:48;14.80;99.90
13808;DHT22;40769;51.512;5.494;2023-11-19T06:04:13;14.70;99.90
13808;DHT22;40769;51.512;5.494;2023-11-19T06:06:39;14.70;99.90
13808;DHT22;40769;51.512;5.494;2023-11-19T06:09:05;14.70;99.90
13808;DHT22;40769;51.512;5.494;2023-11-19T06:11:35;14.70;99.90
13808;DHT22;40769;51.512;5.494;2023-11-19T06:14:01;14.70;99.90
13808;DHT22;40769;51.512;5.494;2023-11-19T06:16:27;14.90;99.90
13808;DHT22;40769;51.512;5.494;2023-11-19T06:18:53;14.90;99.90
13808;DHT22;40769;51.512;5.494;2023-11-19T06:21:19;15.00;99.90
13808;DHT22;40769;51.512;5.494;2023-11-19T06:23:44;14.80;99.90
13808;DHT22;40769;51.512;5.494;2023-11-19T06:26:16;14.60;99.90
13808;DHT22;40769;51.512;5.494;2023-11-19T06:28:41;14.70;99.90
13808;DHT22;40769;51.512;5.494;2023-11-19T06:31:07;14.60;99.90
13808;DHT22;40769;51.512;5.494;2023-11-19T06:33:33;14.60;99.90
13808;DHT22;40769;51.512;5.494;2023-11-19T06:35:59;14.60;99.90
13808;DHT22;40769;51.512;5.494;2023-11-19T06:38:25;14.60;99.90
13808;DHT22;40769;51.512;5.494;2023-11-19T06:40:50;14.60;99.90
13808;DHT22;40769;51.512;5.494;2023-11-19T06:43:16;14.60;99.90
13808;DHT22;40769;51.512;5.494;2023-11-19T06:45:41;14.60;99.90
13808;DHT22;40769;51.512;5.494;2023-11-19T06:48:07;14.60;99.90
13808;DHT22;40769;51.512;5.494;2023-11-19T06:50:33;14.90;99.90
13808;DHT22;40769;51.512;5.494;2023-11-19T06:52:59;14.50;99.90
13808;DHT22;40769;51.512;5.494;2023-11-19T06:55:24;14.50;99.90
13808;DHT22;40769;51.512;5.494;2023-11-19T06:57:50;14.40;99.90
13808;DHT22;40769;51.512;5.494;2023-11-19T07:00:16;14.40;99.90
13808;DHT22;40769;51.512;5.494;2023-11-19T07:02:43;14.40;99.90
13808;DHT22;40769;51.512;5.494;2023-11-19T07:05:10;13.10;99.90
13808;DHT22;40769;51.512;5.494;2023-11-19T07:07:37;14.30;99.90
13808;DHT22;40769;51.512;5.494;2023-11-19T07:10:03;14.40;99.90
13808;DHT22;40769;51.512;5.494;2023-11-19T07:12:30;14.20;99.90
13808;DHT22;40769;51.512;5.494;2023-11-19T07:14:55;14.60;99.90
13808;DHT22;40769;51.512;5.494;2023-11-19T07:17:21;14.40;99.90
13808;DHT22;40769;51.512;5.494;2023-11-19T07:19:49;14.40;99.90
13808;DHT22;40769;51.512;5.494;2023-11-19T07:22:15;14.30;99.90
13808;DHT22;40769;51.512;5.494;2023-11-19T07:24:41;14.70;99.90
13808;DHT22;40769;51.512;5.494;2023-11-19T07:27:07;14.30;99.90
13808;DHT22;40769;51.512;5.494;2023-11-19T07:29:34;14.40;99.90
13808;DHT22;40769;51.512;5.494;2023-11-19T07:32:00;14.90;99.90
13808;DHT22;40769;51.512;5.494;2023-11-19T07:34:27;14.40;99.90
13808;DHT22;40769;51.512;5.494;2023-11-19T07:36:53;14.30;99.90
13808;DHT22;40769;51.512;5.494;2023-11-19T07:39:19;14.40;99.90
13808;DHT22;40769;51.512;5.494;2023-11-19T07:41:46;14.40;99.90
13808;DHT22;40769;51.512;5.494;2023-11-19T07:44:11;14.40;99.90
13808;DHT22;40769;51.512;5.494;2023-11-19T07:46:37;14.40;99.90
13808;DHT22;40769;51.512;5.494;2023-11-19T07:49:03;14.40;99.90
13808;DHT22;40769;51.512;5.494;2023-11-19T07:51:31;14.50;99.90
13808;DHT22;40769;51.512;5.494;2023-11-19T07:53:56;14.60;99.90
13808;DHT22;40769;51.512;5.494;2023-11-19T07:56:22;14.60;99.90
13808;DHT22;40769;51.512;5.494;2023-11-19T07:58:47;14.70;99.90
13808;DHT22;40769;51.512;5.494;2023-11-19T08:01:15;14.80;99.90
13808;DHT22;40769;51.512;5.494;2023-11-19T08:03:41;14.70;99.90
13808;DHT22;40769;51.512;5.494;2023-11-19T08:06:07;14.80;99.90
13808;DHT22;40769;51.512;5.494;2023-11-19T08:08:32;14.90;99.90
13808;DHT22;40769;51.512;5.494;2023-11-19T08:10:59;15.00;99.90
13808;DHT22;40769;51.512;5.494;2023-11-19T08:13:24;15.10;99.90
13808;DHT22;40769;51.512;5.494;2023-11-19T08:15:50;15.30;99.90
13808;DHT22;40769;51.512;5.494;2023-11-19T08:18:16;15.70;99.90
13808;DHT22;40769;51.512;5.494;2023-11-19T08:20:43;15.30;99.90
13808;DHT22;40769;51.512;5.494;2023-11-19T08:23:10;15.30;99.90
13808;DHT22;40769;51.512;5.494;2023-11-19T08:25:35;15.40;99.90
13808;DHT22;40769;51.512;5.494;2023-11-19T08:28:01;15.40;99.90
13808;DHT22;40769;51.512;5.494;2023-11-19T08:30:29;15.40;99.90
13808;DHT22;40769;51.512;5.494;2023-11-19T08:32:54;15.50;99.90
13808;DHT22;40769;51.512;5.494;2023-11-19T08:35:20;15.60;99.90
13808;DHT22;40769;51.512;5.494;2023-11-19T08:37:46;15.60;99.90
13808;DHT22;40769;51.512;5.494;2023-11-19T08:40:11;15.90;99.90
13808;DHT22;40769;51.512;5.494;2023-11-19T08:42:39;15.80;99.90
13808;DHT22;40769;51.512;5.494;2023-11-19T08:45:05;15.80;99.90
13808;DHT22;40769;51.512;5.494;2023-11-19T08:47:31;15.90;99.90
13808;DHT22;40769;51.512;5.494;2023-11-19T08:49:57;16.10;99.90
13808;DHT22;40769;51.512;5.494;2023-11-19T08:52:22;15.90;99.90
13808;DHT22;40769;51.512;5.494;2023-11-19T08:54:48;16.00;99.90
13808;DHT22;40769;51.512;5.494;2023-11-19T08:57:14;15.90;99.90
13808;DHT22;40769;51.512;5.494;2023-11-19T08:59:39;15.90;99.90
13808;DHT22;40769;51.512;5.494;2023-11-19T09:02:05;16.00;99.90
13808;DHT22;40769;51.512;5.494;2023-11-19T09:04:32;16.20;99.90
13808;DHT22;40769;51.512;5.494;2023-11-19T09:06:58;16.10;99.90
13808;DHT22;40769;51.512;5.494;2023-11-19T09:09:24;16.10;99.90
13808;DHT22;40769;51.512;5.494;2023-11-19T09:11:49;16.20;99.90
13808;DHT22;40769;51.512;5.494;2023-11-19T09:14:15;16.20;99.90
13808;DHT22;40769;51.512;5.494;2023-11-19T09:16:41;16.20;99.90
13808;DHT22;40769;51.512;5.494;2023-11-19T09:19:07;16.20;99.90
13808;DHT22;40769;51.512;5.494;2023-11-19T09:21:33;16.30;99.90
13808;DHT22;40769;51.512;5.494;2023-11-19T09:24:01;16.30;99.90
13808;DHT22;40769;51.512;5.494;2023-11-19T09:26:27;16.40;99.90
13808;DHT22;40769;51.512;5.494;2023-11-19T09:28:53;16.40;99.90
13808;DHT22;40769;51.512;5.494;2023-11-19T09:31:18;16.40;99.90
13808;DHT22;40769;51.512;5.494;2023-11-19T09:33:44;16.50;99.90
13808;DHT22;40769;51.512;5.494;2023-11-19T09:36:14;16.50;99.90
13808;DHT22;40769;51.512;5.494;2023-11-19T09:38:42;16.50;99.90
13808;DHT22;40769;51.512;5.494;2023-11-19T09:41:10;17.60;99.90
13808;DHT22;40769;51.512;5.494;2023-11-19T09:43:39;16.60;99.90
13808;DHT22;40769;51.512;5.494;2023-11-19T09:46:06;16.60;99.90
13808;DHT22;40769;51.512;5.494;2023-11-19T09:48:37;16.60;99.90
13808;DHT22;40769;51.512;5.494;2023-11-19T09:51:05;16.60;99.90
13808;DHT22;40769;51.512;5.494;2023-11-19T09:53:31;16.70;99.90
13808;DHT22;40769;51.512;5.494;2023-11-19T09:55:59;16.80;99.90
13808;DHT22;40769;51.512;5.494;2023-11-19T09:58:26;17.20;99.90
13808;DHT22;40769;51.512;5.494;2023-11-19T10:00:51;16.90;99.90
13808;DHT22;40769;51.512;5.494;2023-11-19T10:03:21;16.90;99.90
13808;DHT22;40769;51.512;5.494;2023-11-19T10:05:48;17.10;99.90
13808;DHT22;40769;51.512;5.494;2023-11-19T10:08:14;17.00;99.90
13808;DHT22;40769;51.512;5.494;2023-11-19T10:10:40;17.00;99.90
13808;DHT22;40769;51.512;5.494;2023-11-19T10:13:05;17.20;99.90
13808;DHT22;40769;51.512;5.494;2023-11-19T10:15:36;17.10;99.90
13808;DHT22;40769;51.512;5.494;2023-11-19T10:18:03;17.10;99.90
13808;DHT22;40769;51.512;5.494;2023-11-19T10:20:40;17.10;99.90
13808;DHT22;40769;51.512;5.494;2023-11-19T10:23:07;17.20;99.90
13808;DHT22;40769;51.512;5.494;2023-11-19T10:25:33;17.30;99.90
13808;DHT22;40769;51.512;5.494;2023-11-19T10:27:59;17.30;99.90
13808;DHT22;40769;51.512;5.494;2023-11-19T10:30:30;17.30;99.90
13808;DHT22;40769;51.512;5.494;2023-11-19T10:33:06;17.30;99.90
13808;DHT22;40769;51.512;5.494;2023-11-19T10:35:36;17.30;99.90
13808;DHT22;40769;51.512;5.494;2023-11-19T10:38:22;17.30;99.90
13808;DHT22;40769;51.512;5.494;2023-11-19T10:40:49;17.30;99.90
13808;DHT22;40769;51.512;5.494;2023-11-19T10:43:16;17.30;99.90
13808;DHT22;40769;51.512;5.494;2023-11-19T10:45:42;17.30;99.90
13808;DHT22;40769;51.512;5.494;2023-11-19T10:48:08;17.30;99.90
13808;DHT22;40769;51.512;5.494;2023-11-19T10:50:39;17.20;99.90
13808;DHT22;40769;51.512;5.494;2023-11-19T10:53:06;17.30;99.90
13808;DHT22;40769;51.512;5.494;2023-11-19T10:55:38;17.30;99.90
13808;DHT22;40769;51.512;5.494;2023-11-19T10:58:10;17.30;99.90
13808;DHT22;40769;51.512;5.494;2023-11-19T11:00:42;17.40;99.90
13808;DHT22;40769;51.512;5.494;2023-11-19T11:03:20;17.50;99.90
13808;DHT22;40769;51.512;5.494;2023-11-19T11:05:49;17.50;99.90
13808;DHT22;40769;51.512;5.494;2023-11-19T11:08:15;17.50;99.90
13808;DHT22;40769;51.512;5.494;2023-11-19T11:10:48;17.50;99.90
13808;DHT22;40769;51.512;5.494;2023-11-19T11:13:19;17.60;99.90
13808;DHT22;40769;51.512;5.494;2023-11-19T11:15:45;17.60;99.90
13808;DHT22;40769;51.512;5.494;2023-11-19T11:18:13;17.60;99.90
13808;DHT22;40769;51.512;5.494;2023-11-19T11:20:39;17.40;99.90
13808;DHT22;40769;51.512;5.494;2023-11-19T11:31:00;17.30;99.90
13808;DHT22;40769;51.512;5.494;2023-11-19T11:37:03;16.90;99.90
13808;DHT22;40769;51.512;5.494;2023-11-19T11:39:33;16.70;99.90
13808;DHT22;40769;51.512;5.494;2023-11-19T11:45:02;16.40;99.90
13808;DHT22;40769;51.512;5.494;2023-11-19T11:50:18;16.00;99.90
13808;DHT22;40769;51.512;5.494;2023-11-19T11:55:25;15.70;99.90
13808;DHT22;40769;51.512;5.494;2023-11-19T11:57:51;15.60;99.90
13808;DHT22;40769;51.512;5.494;2023-11-19T12:03:01;15.50;99.90
13808;DHT22;40769;51.512;5.494;2023-11-19T12:05:27;15.50;99.90
13808;DHT22;40769;51.512;5.494;2023-11-19T12:08:00;15.40;99.90
13808;DHT22;40769;51.512;5.494;2023-11-19T12:10:29;15.50;99.90
13808;DHT22;40769;51.512;5.494;2023-11-19T12:13:00;15.60;99.90
13808;DHT22;40769;51.512;5.494;2023-11-19T12:15:26;15.60;99.90
13808;DHT22;40769;51.512;5.494;2023-11-19T12:17:53;15.70;99.90
13808;DHT22;40769;51.512;5.494;2023-11-19T12:20:24;15.80;99.90
13808;DHT22;40769;51.512;5.494;2023-11-19T12:22:50;15.80;99.90
13808;DHT22;40769;51.512;5.494;2023-11-19T12:25:17;15.90;99.90
13808;DHT22;40769;51.512;5.494;2023-11-19T12:27:50;15.90;99.90
13808;DHT22;40769;51.512;5.494;2023-11-19T12:30:24;16.00;99.90
13808;DHT22;40769;51.512;5.494;2023-11-19T12:32:50;16.00;99.90
13808;DHT22;40769;51.512;5.494;2023-11-19T12:35:18;16.10;99.90
13808;DHT22;40769;51.512;5.494;2023-11-19T12:37:48;16.10;99.90
13808;DHT22;40769;51.512;5.494;2023-11-19T12:42:45;16.20;99.90
13808;DHT22;40769;51.512;5.494;2023-11-19T12:45:11;16.10;99.90
13808;DHT22;40769;51.512;5.494;2023-11-19T12:47:39;16.10;99.90
13808;DHT22;40769;51.512;5.494;2023-11-19T12:50:06;16.10;99.90
13808;DHT22;40769;51.512;5.494;2023-11-19T12:52:32;16.00;99.90
13808;DHT22;40769;51.512;5.494;2023-11-19T12:54:58;16.00;99.90
13808;DHT22;40769;51.512;5.494;2023-11-19T12:57:40;16.00;99.90
13808;DHT22;40769;51.512;5.494;2023-11-19T13:00:07;15.90;99.90
13808;DHT22;40769;51.512;5.494;2023-11-19T13:02:51;16.00;99.90
13808;DHT22;40769;51.512;5.494;2023-11-19T13:08:00;15.90;99.90
13808;DHT22;40769;51.512;5.494;2023-11-19T13:10:27;15.90;99.90
13808;DHT22;40769;51.512;5.494;2023-11-19T13:13:08;15.90;99.90
13808;DHT22;40769;51.512;5.494;2023-11-19T13:15:35;15.90;99.90
13808;DHT22;40769;51.512;5.494;2023-11-19T13:18:01;15.80;99.90
13808;DHT22;40769;51.512;5.494;2023-11-19T13:20:28;15.80;99.90
13808;DHT22;40769;51.512;5.494;2023-11-19T13:23:02;15.70;99.90
13808;DHT22;40769;51.512;5.494;2023-11-19T13:25:28;15.70;99.90
13808;DHT22;40769;51.512;5.494;2023-11-19T13:27:54;15.70;99.90
13808;DHT22;40769;51.512;5.494;2023-11-19T13:30:21;15.80;99.90
13808;DHT22;40769;51.512;5.494;2023-11-19T13:32:48;15.70;99.90
13808;DHT22;40769;51.512;5.494;2023-11-19T13:35:13;15.70;99.90
13808;DHT22;40769;51.512;5.494;2023-11-19T13:37:39;15.70;99.90
13808;DHT22;40769;51.512;5.494;2023-11-19T13:40:07;15.70;99.90
13808;DHT22;40769;51.512;5.494;2023-11-19T13:42:32;15.70;99.90
13808;DHT22;40769;51.512;5.494;2023-11-19T13:44:58;15.70;99.90
13808;DHT22;40769;51.512;5.494;2023-11-19T13:47:24;15.70;99.90
13808;DHT22;40769;51.512;5.494;2023-11-19T13:49:50;15.80;99.90
13808;DHT22;40769;51.512;5.494;2023-11-19T13:52:15;15.70;99.90
13808;DHT22;40769;51.512;5.494;2023-11-19T13:54:41;15.70;99.90
13808;DHT22;40769;51.512;5.494;2023-11-19T13:57:06;15.70;99.90
13808;DHT22;40769;51.512;5.494;2023-11-19T13:59:32;15.70;99.90
13808;DHT22;40769;51.512;5.494;2023-11-19T14:01:58;15.70;99.90
13808;DHT22;40769;51.512;5.494;2023-11-19T14:04:24;15.60;99.90
13808;DHT22;40769;51.512;5.494;2023-11-19T14:06:50;15.60;99.90
13808;DHT22;40769;51.512;5.494;2023-11-19T14:09:16;15.70;99.90
13808;DHT22;40769;51.512;5.494;2023-11-19T14:11:41;15.70;99.90
13808;DHT22;40769;51.512;5.494;2023-11-19T14:14:07;15.80;99.90
13808;DHT22;40769;51.512;5.494;2023-11-19T14:16:33;15.80;99.90
13808;DHT22;40769;51.512;5.494;2023-11-19T14:18:59;15.90;99.90
13808;DHT22;40769;51.512;5.494;2023-11-19T14:21:25;15.90;99.90
13808;DHT22;40769;51.512;5.494;2023-11-19T14:23:52;15.90;99.90
13808;DHT22;40769;51.512;5.494;2023-11-19T14:26:18;16.10;99.90
13808;DHT22;40769;51.512;5.494;2023-11-19T14:28:43;15.80;99.90
13808;DHT22;40769;51.512;5.494;2023-11-19T14:31:09;15.70;99.90
13808;DHT22;40769;51.512;5.494;2023-11-19T14:33:34;15.70;99.90
13808;DHT22;40769;51.512;5.494;2023-11-19T14:36:01;15.60;99.90
13808;DHT22;40769;51.512;5.494;2023-11-19T14:38:27;15.70;99.90
13808;DHT22;40769;51.512;5.494;2023-11-19T14:40:53;15.70;99.90
13808;DHT22;40769;51.512;5.494;2023-11-19T14:43:20;15.70;99.90
13808;DHT22;40769;51.512;5.494;2023-11-19T14:45:45;15.70;99.90
13808;DHT22;40769;51.512;5.494;2023-11-19T14:48:11;15.70;99.90
13808;DHT22;40769;51.512;5.494;2023-11-19T14:50:36;15.60;99.90
13808;DHT22;40769;51.512;5.494;2023-11-19T14:53:02;15.60;99.90
13808;DHT22;40769;51.512;5.494;2023-11-19T14:55:28;15.50;99.90
13808;DHT22;40769;51.512;5.494;2023-11-19T14:57:54;15.50;99.90
13808;DHT22;40769;51.512;5.494;2023-11-19T15:00:20;15.50;99.90
13808;DHT22;40769;51.512;5.494;2023-11-19T15:02:46;15.40;99.90
13808;DHT22;40769;51.512;5.494;2023-11-19T15:05:12;15.40;99.90
13808;DHT22;40769;51.512;5.494;2023-11-19T15:07:39;15.40;99.90
13808;DHT22;40769;51.512;5.494;2023-11-19T15:10:06;15.40;99.90
13808;DHT22;40769;51.512;5.494;2023-11-19T15:12:38;15.30;99.90
13808;DHT22;40769;51.512;5.494;2023-11-19T15:15:10;15.20;99.90
13808;DHT22;40769;51.512;5.494;2023-11-19T15:17:39;15.10;99.90
13808;DHT22;40769;51.512;5.494;2023-11-19T15:20:05;15.10;99.90
13808;DHT22;40769;51.512;5.494;2023-11-19T15:22:31;15.00;99.90
13808;DHT22;40769;51.512;5.494;2023-11-19T15:24:56;15.00;99.90
13808;DHT22;40769;51.512;5.494;2023-11-19T15:27:22;14.90;99.90
13808;DHT22;40769;51.512;5.494;2023-11-19T15:29:48;14.80;99.90
13808;DHT22;40769;51.512;5.494;2023-11-19T15:32:14;14.70;99.90
13808;DHT22;40769;51.512;5.494;2023-11-19T15:34:39;14.70;99.90
13808;DHT22;40769;51.512;5.494;2023-11-19T15:37:07;14.50;99.90
13808;DHT22;40769;51.512;5.494;2023-11-19T15:39:42;14.60;99.90
13808;DHT22;40769;51.512;5.494;2023-11-19T15:42:07;14.60;99.90
13808;DHT22;40769;51.512;5.494;2023-11-19T15:44:35;14.70;99.90
13808;DHT22;40769;51.512;5.494;2023-11-19T15:47:13;14.70;99.90
13808;DHT22;40769;51.512;5.494;2023-11-19T15:49:46;14.80;99.90
13808;DHT22;40769;51.512;5.494;2023-11-19T15:52:16;14.80;99.90
13808;DHT22;40769;51.512;5.494;2023-11-19T15:54:41;14.80;99.90